Time;durP1;ratioP1;P1;durP2;ratioP2;P2;SDS_P1;SDS_P2;PMS_P1;PMS_P2;Temp;Humidity;BMP_temperature;BMP_pressure;BME280_temperature;BME280_humidity;BME280_pressure;Samples;Min_cycle;Max_cycle;Signal;HPM_P1;HPM_P2
2023/02/13 00:01:28;;;;;;;43.67;22.27;;;;;;;;;;5086366;28;20031;-49
2023/02/13 00:03:54;;;;;;;39.58;22.05;;;;;;;;;;5086503;28;20523;-51
2023/02/13 00:06:20;;;;;;;42.20;23.00;;;;;;;;;;5085006;28;20032;-49
2023/02/13 00:08:46;;;;;;;43.85;22.40;;;;;;;;;;5066321;28;20052;-51
2023/02/13 00:11:12;;;;;;;39.15;22.23;;;;;;;;;;5081212;28;20043;-51
2023/02/13 00:13:38;;;;;;;40.10;20.50;;;;;;;;;;5086734;28;20028;-50
2023/02/13 00:16:04;;;;;;;41.13;21.17;;;;;;;;;;5086681;28;20059;-50
2023/02/13 00:18:33;;;;;;;42.30;21.63;;;;;;;;;;5086450;28;20462;-49
2023/02/13 00:21:00;;;;;;;38.40;22.42;;;;;;;;;;5086457;28;20118;-50
2023/02/13 00:23:27;;;;;;;38.15;21.42;;;;;;;;;;5086699;28;20027;-49
2023/02/13 00:25:53;;;;;;;40.72;21.83;;;;;;;;;;5086169;28;20027;-49
2023/02/13 00:28:19;;;;;;;38.42;21.35;;;;;;;;;;5086182;28;20028;-48
2023/02/13 00:30:45;;;;;;;39.08;21.42;;;;;;;;;;5086888;28;20039;-51
2023/02/13 00:33:11;;;;;;;46.38;22.92;;;;;;;;;;5086161;28;20416;-48
2023/02/13 00:35:37;;;;;;;43.97;23.40;;;;;;;;;;5086154;28;20040;-49
2023/02/13 00:38:03;;;;;;;46.83;24.20;;;;;;;;;;5086007;28;20032;-49
2023/02/13 00:40:29;;;;;;;45.05;23.85;;;;;;;;;;5086030;28;20060;-48
2023/02/13 00:42:55;;;;;;;44.38;23.58;;;;;;;;;;5085988;28;20032;-50
2023/02/13 00:45:21;;;;;;;46.60;25.05;;;;;;;;;;5086017;28;20524;-52
2023/02/13 00:47:47;;;;;;;49.25;24.60;;;;;;;;;;5085734;28;20525;-48
2023/02/13 00:50:13;;;;;;;44.88;24.70;;;;;;;;;;5068426;28;20360;-50
2023/02/13 00:52:39;;;;;;;44.92;24.05;;;;;;;;;;5089805;28;20521;-50
2023/02/13 00:55:05;;;;;;;45.53;24.30;;;;;;;;;;5089779;28;20024;-49
2023/02/13 00:57:31;;;;;;;42.03;22.77;;;;;;;;;;5089669;28;20020;-48
2023/02/13 00:59:58;;;;;;;48.67;24.67;;;;;;;;;;5089763;28;20032;-48
2023/02/13 01:02:24;;;;;;;40.00;22.17;;;;;;;;;;5089242;28;20422;-52
2023/02/13 01:04:50;;;;;;;38.72;22.27;;;;;;;;;;5089193;28;20039;-48
2023/02/13 06:14:51;;;;;;;51.17;26.80;;;;;;;;;;5089034;28;20744;-51
2023/02/13 06:17:17;;;;;;;49.88;26.13;;;;;;;;;;5089123;28;20032;-48
2023/02/13 06:19:43;;;;;;;50.58;26.55;;;;;;;;;;5089757;28;20584;-50
2023/02/13 06:22:09;;;;;;;47.67;25.88;;;;;;;;;;5089526;28;20024;-48
2023/02/13 06:24:35;;;;;;;50.42;26.45;;;;;;;;;;5089937;28;20016;-49
2023/02/13 06:27:01;;;;;;;49.40;26.05;;;;;;;;;;5086317;28;20035;-50
2023/02/13 06:29:27;;;;;;;52.65;26.02;;;;;;;;;;5086850;28;20022;-50
2023/02/13 06:31:53;;;;;;;46.58;24.75;;;;;;;;;;5090409;28;20646;-49
2023/02/13 06:34:19;;;;;;;46.00;25.00;;;;;;;;;;5090539;28;20077;-49
2023/02/13 06:36:45;;;;;;;47.40;24.52;;;;;;;;;;5089713;28;20044;-49
2023/02/13 06:39:11;;;;;;;46.88;23.60;;;;;;;;;;5088855;28;20028;-49
2023/02/13 06:41:37;;;;;;;42.85;23.25;;;;;;;;;;5090058;28;20457;-48
2023/02/13 06:44:03;;;;;;;39.85;21.35;;;;;;;;;;5087495;28;20135;-52
2023/02/13 06:46:29;;;;;;;37.55;21.40;;;;;;;;;;5089654;28;20089;-49
2023/02/13 06:48:55;;;;;;;39.30;21.40;;;;;;;;;;5094076;28;20031;-50
2023/02/13 06:51:21;;;;;;;45.92;22.00;;;;;;;;;;5092358;28;20039;-49
2023/02/13 06:53:47;;;;;;;40.40;21.02;;;;;;;;;;5090018;28;20078;-49
2023/02/13 06:56:13;;;;;;;38.95;21.70;;;;;;;;;;5089721;28;20059;-50
2023/02/13 06:58:39;;;;;;;44.67;23.52;;;;;;;;;;5089906;28;20097;-49
2023/02/13 07:01:06;;;;;;;45.25;24.38;;;;;;;;;;5089593;28;20111;-49
2023/02/13 07:03:32;;;;;;;40.75;22.65;;;;;;;;;;5080892;28;20582;-48
2023/02/13 07:05:58;;;;;;;44.13;22.60;;;;;;;;;;5088518;28;20028;-49
2023/02/13 07:08:24;;;;;;;41.17;21.42;;;;;;;;;;5089364;28;20035;-48
2023/02/13 07:10:50;;;;;;;38.08;20.40;;;;;;;;;;5088474;28;20476;-52
2023/02/13 07:13:16;;;;;;;40.58;21.38;;;;;;;;;;5089131;28;20084;-50
2023/02/13 07:15:42;;;;;;;37.33;20.40;;;;;;;;;;5089129;28;20047;-51
2023/02/13 07:18:08;;;;;;;36.90;20.23;;;;;;;;;;5088106;28;20086;-51
2023/02/13 07:20:34;;;;;;;41.13;21.90;;;;;;;;;;5089333;28;20043;-48
2023/02/13 07:23:01;;;;;;;38.47;20.63;;;;;;;;;;5089354;28;20101;-50
2023/02/13 07:25:28;;;;;;;36.67;20.35;;;;;;;;;;5087172;28;20472;-50
2023/02/13 07:27:54;;;;;;;34.75;19.77;;;;;;;;;;5088411;28;20077;-51
2023/02/13 07:30:20;;;;;;;37.17;20.67;;;;;;;;;;5089467;28;20028;-50
2023/02/13 07:32:46;;;;;;;40.00;21.25;;;;;;;;;;5089051;28;20057;-49
2023/02/13 07:35:12;;;;;;;40.10;20.80;;;;;;;;;;5088909;28;20035;-49
2023/02/13 07:37:38;;;;;;;35.65;19.83;;;;;;;;;;5087133;28;20035;-51
2023/02/13 07:40:05;;;;;;;34.13;18.35;;;;;;;;;;5087773;28;20653;-48
2023/02/13 07:42:34;;;;;;;33.05;18.15;;;;;;;;;;5087834;28;20395;-50
2023/02/13 07:45:04;;;;;;;29.50;16.50;;;;;;;;;;5088306;28;20059;-50
2023/02/13 07:47:30;;;;;;;27.90;15.98;;;;;;;;;;5087624;28;20491;-48
2023/02/13 07:49:56;;;;;;;25.98;16.00;;;;;;;;;;5087554;28;20648;-49
2023/02/13 07:52:22;;;;;;;30.38;16.48;;;;;;;;;;5083662;28;20024;-48
2023/02/13 07:54:48;;;;;;;32.40;18.08;;;;;;;;;;5086021;28;20229;-48
2023/02/13 07:57:14;;;;;;;31.40;17.73;;;;;;;;;;5086900;28;20084;-49
2023/02/13 07:59:40;;;;;;;30.80;16.77;;;;;;;;;;5087412;28;20317;-51
2023/02/13 08:02:11;;;;;;;30.92;17.10;;;;;;;;;;5090901;28;20513;-49
2023/02/13 08:04:37;;;;;;;30.25;16.65;;;;;;;;;;5090931;28;20103;-51
2023/02/13 08:07:03;;;;;;;28.23;15.95;;;;;;;;;;5087013;28;20158;-50
2023/02/13 08:12:13;;;;;;;26.67;14.68;;;;;;;;;;5086977;28;20406;-50
2023/02/13 08:14:39;;;;;;;22.20;12.55;;;;;;;;;;5090646;28;20027;-49
2023/02/13 08:17:06;;;;;;;22.15;13.00;;;;;;;;;;5090355;28;20123;-50
2023/02/13 08:19:33;;;;;;;28.33;15.23;;;;;;;;;;5090512;28;20043;-51
2023/02/13 08:22:00;;;;;;;28.85;16.15;;;;;;;;;;5090401;28;20028;-49
2023/02/13 08:24:26;;;;;;;29.42;17.00;;;;;;;;;;5090250;28;20024;-49
2023/02/13 08:26:53;;;;;;;28.42;15.73;;;;;;;;;;5090022;28;20325;-48
2023/02/13 08:29:19;;;;;;;25.40;14.63;;;;;;;;;;5089270;28;20434;-49
2023/02/13 08:31:45;;;;;;;25.15;13.98;;;;;;;;;;5089762;28;20064;-52
2023/02/13 08:34:11;;;;;;;26.25;13.63;;;;;;;;;;5089745;28;20048;-50
2023/02/13 08:36:38;;;;;;;22.40;12.63;;;;;;;;;;5086602;28;20081;-48
2023/02/13 08:39:05;;;;;;;19.00;10.85;;;;;;;;;;5089622;28;20028;-50
2023/02/13 08:41:31;;;;;;;18.83;10.32;;;;;;;;;;5090087;28;20039;-50
2023/02/13 08:43:57;;;;;;;18.38;10.00;;;;;;;;;;5090033;28;20032;-52
2023/02/13 08:46:23;;;;;;;14.32;8.93;;;;;;;;;;5089708;28;20104;-49
2023/02/13 08:48:50;;;;;;;15.40;8.95;;;;;;;;;;5082739;28;20029;-49
2023/02/13 08:51:16;;;;;;;14.02;8.20;;;;;;;;;;5092375;28;20024;-50
2023/02/13 08:53:43;;;;;;;16.80;10.10;;;;;;;;;;5089841;28;20027;-53
2023/02/13 08:56:10;;;;;;;19.65;11.38;;;;;;;;;;5088101;28;20123;-50
2023/02/13 08:58:37;;;;;;;20.15;12.02;;;;;;;;;;5087764;28;20027;-51
2023/02/13 09:01:07;;;;;;;24.35;13.38;;;;;;;;;;5077961;28;20461;-49
2023/02/13 09:03:33;;;;;;;24.33;13.00;;;;;;;;;;5087446;28;20039;-53
2023/02/13 09:06:00;;;;;;;23.15;13.05;;;;;;;;;;5088265;28;20482;-50
2023/02/13 09:08:26;;;;;;;21.92;11.93;;;;;;;;;;5091752;28;20244;-51
2023/02/13 09:10:56;;;;;;;21.98;12.75;;;;;;;;;;5101926;28;20103;-51
2023/02/13 09:13:23;;;;;;;21.92;13.35;;;;;;;;;;5086964;28;20028;-49
2023/02/13 09:15:49;;;;;;;18.23;11.00;;;;;;;;;;5088053;28;20539;-51
2023/02/13 09:18:15;;;;;;;19.38;9.98;;;;;;;;;;5090907;28;20036;-52
2023/02/13 09:20:42;;;;;;;13.63;8.35;;;;;;;;;;5087709;28;20070;-51
2023/02/13 09:23:08;;;;;;;13.57;7.75;;;;;;;;;;5091034;28;20106;-50
2023/02/13 09:25:34;;;;;;;12.68;7.68;;;;;;;;;;5106967;28;20032;-50
2023/02/13 09:28:01;;;;;;;12.30;7.13;;;;;;;;;;5107012;28;20031;-49
2023/02/13 09:30:27;;;;;;;12.00;7.07;;;;;;;;;;5093925;28;20040;-52
2023/02/13 09:32:54;;;;;;;9.77;5.68;;;;;;;;;;5094761;28;20130;-51
2023/02/13 09:35:21;;;;;;;11.30;6.00;;;;;;;;;;5101153;28;20115;-50
2023/02/13 09:37:48;;;;;;;10.38;6.05;;;;;;;;;;5087024;28;20024;-50
2023/02/13 09:40:37;;;;;;;8.88;5.40;;;;;;;;;;5101256;28;20507;-48
2023/02/13 09:43:15;;;;;;;6.22;4.53;;;;;;;;;;5081927;28;20040;-53
2023/02/13 09:45:43;;;;;;;9.43;5.68;;;;;;;;;;5098554;28;20028;-51
2023/02/13 09:48:15;;;;;;;14.20;7.75;;;;;;;;;;5088009;28;20024;-49
2023/02/13 09:50:41;;;;;;;14.45;9.15;;;;;;;;;;5086416;28;20031;-49
2023/02/13 09:53:07;;;;;;;18.45;11.07;;;;;;;;;;5095084;28;20080;-51
2023/02/13 09:55:51;;;;;;;24.00;13.13;;;;;;;;;;5072374;28;20028;-48
2023/02/13 09:58:19;;;;;;;;;;;;;;;;;;5093600;28;20028;-48
2023/02/13 10:00:49;;;;;;;23.67;13.63;;;;;;;;;;5086376;28;19951;-50
2023/02/13 10:03:21;;;;;;;22.67;12.70;;;;;;;;;;5092109;28;20028;-50
2023/02/13 10:05:55;;;;;;;22.13;13.30;;;;;;;;;;5087974;28;20140;-50
2023/02/13 10:08:27;;;;;;;21.52;13.00;;;;;;;;;;5085489;28;20114;-49
2023/02/13 10:10:54;;;;;;;27.08;14.57;;;;;;;;;;5086042;28;20099;-51
2023/02/13 10:13:26;;;;;;;22.10;13.30;;;;;;;;;;5087242;28;20028;-51
2023/02/13 10:16:07;;;;;;;22.95;13.50;;;;;;;;;;5089066;28;20546;-49
2023/02/13 10:18:50;;;;;;;22.58;12.52;;;;;;;;;;5086143;28;20519;-52
2023/02/13 10:21:19;;;;;;;22.52;13.52;;;;;;;;;;5084609;28;20115;-49
2023/02/13 10:23:47;;;;;;;20.05;12.50;;;;;;;;;;5085362;28;20032;-52
2023/02/13 10:26:41;;;;;;;20.05;11.65;;;;;;;;;;5087306;28;20492;-49
2023/02/13 10:32:00;;;;;;;15.65;9.85;;;;;;;;;;5089407;28;20711;-50
2023/02/13 10:34:30;;;;;;;17.35;10.23;;;;;;;;;;5089120;28;20070;-51
2023/02/13 10:36:56;;;;;;;14.07;8.95;;;;;;;;;;5088819;28;20028;-50
2023/02/13 10:39:24;;;;;;;14.50;8.70;;;;;;;;;;5089069;28;20020;-52
2023/02/13 10:41:56;;;;;;;13.95;8.88;;;;;;;;;;5087586;28;20036;-53
2023/02/13 10:44:28;;;;;;;14.68;8.20;;;;;;;;;;5088926;28;20513;-50
2023/02/13 10:47:18;;;;;;;16.48;9.43;;;;;;;;;;5088597;28;20059;-48
2023/02/13 10:49:55;;;;;;;15.75;8.93;;;;;;;;;;5079426;28;20039;-50
2023/02/13 10:52:35;;;;;;;12.95;8.68;;;;;;;;;;5087241;28;20099;-48
2023/02/13 10:55:14;;;;;;;14.90;8.65;;;;;;;;;;5085792;28;20074;-51
2023/02/13 10:57:58;;;;;;;16.48;9.35;;;;;;;;;;5086620;28;20143;-48
2023/02/13 11:00:34;;;;;;;13.88;7.85;;;;;;;;;;5086589;28;20414;-51
2023/02/13 11:03:02;;;;;;;13.30;8.07;;;;;;;;;;5085894;28;20063;-50
2023/02/13 11:05:32;;;;;;;13.82;7.57;;;;;;;;;;5086123;28;20047;-49
2023/02/13 11:08:02;;;;;;;11.38;7.38;;;;;;;;;;5085997;28;20043;-52
2023/02/13 11:10:28;;;;;;;10.80;7.00;;;;;;;;;;5086000;28;20437;-51
2023/02/13 11:12:54;;;;;;;11.13;6.68;;;;;;;;;;5084878;28;20028;-53
2023/02/13 11:15:25;;;;;;;11.85;7.13;;;;;;;;;;5067979;28;20408;-50
2023/02/13 11:17:52;;;;;;;10.88;6.57;;;;;;;;;;5086442;28;20028;-52
2023/02/13 11:20:28;;;;;;;11.80;7.22;;;;;;;;;;5086044;28;20027;-52
2023/02/13 11:22:55;;;;;;;9.82;6.40;;;;;;;;;;5084804;28;20499;-52
2023/02/13 11:25:22;;;;;;;10.70;6.88;;;;;;;;;;5085793;28;20024;-48
2023/02/13 11:28:03;;;;;;;15.73;9.13;;;;;;;;;;5086127;28;20070;-50
2023/02/13 11:30:31;;;;;;;13.57;8.40;;;;;;;;;;5085327;28;20455;-49
2023/02/13 11:33:00;;;;;;;13.25;8.82;;;;;;;;;;5067591;28;20153;-49
2023/02/13 11:35:31;;;;;;;11.93;7.80;;;;;;;;;;5085165;28;20206;-53
2023/02/13 11:38:09;;;;;;;13.50;8.52;;;;;;;;;;5085701;28;20028;-49
2023/02/13 11:40:35;;;;;;;13.35;8.60;;;;;;;;;;5084387;28;20490;-51
2023/02/13 11:43:01;;;;;;;12.32;8.20;;;;;;;;;;5086339;28;20021;-49
2023/02/13 11:45:27;;;;;;;12.82;8.38;;;;;;;;;;5085624;28;20039;-49
2023/02/13 11:47:54;;;;;;;15.63;9.30;;;;;;;;;;5085582;28;20560;-49
2023/02/13 11:50:29;;;;;;;14.98;9.05;;;;;;;;;;5086038;28;20024;-49
2023/02/13 11:52:58;;;;;;;13.40;8.13;;;;;;;;;;5085162;28;20518;-49
2023/02/13 11:55:32;;;;;;;13.48;8.02;;;;;;;;;;5085846;28;20025;-48
2023/02/13 11:58:18;;;;;;;11.23;7.70;;;;;;;;;;5085429;28;20089;-49
2023/02/13 12:00:46;;;;;;;15.45;8.45;;;;;;;;;;5085183;28;20024;-49
2023/02/13 12:03:20;;;;;;;14.00;8.52;;;;;;;;;;5085450;28;20035;-50
2023/02/13 12:06:00;;;;;;;12.30;7.85;;;;;;;;;;5066926;28;20123;-49
2023/02/13 12:08:27;;;;;;;11.80;8.05;;;;;;;;;;5085577;28;20488;-49
2023/02/13 12:10:53;;;;;;;10.25;7.28;;;;;;;;;;5083286;28;20179;-52
2023/02/13 12:13:38;;;;;;;12.13;7.90;;;;;;;;;;5083786;28;20028;-54
2023/02/13 12:16:09;;;;;;;11.13;7.38;;;;;;;;;;5078869;28;20465;-51
2023/02/13 12:18:41;;;;;;;12.80;8.20;;;;;;;;;;5083827;28;20032;-50
2023/02/13 12:21:25;;;;;;;13.57;8.75;;;;;;;;;;5083353;28;20639;-50
2023/02/13 12:24:10;;;;;;;13.18;8.68;;;;;;;;;;5084250;28;20517;-48
2023/02/13 12:26:41;;;;;;;11.43;7.57;;;;;;;;;;5083155;28;20024;-51
2023/02/13 12:29:22;;;;;;;10.45;7.07;;;;;;;;;;5083488;28;20032;-49
2023/02/13 12:31:54;;;;;;;11.63;7.30;;;;;;;;;;5083264;28;20008;-49
2023/02/13 12:34:59;;;;;;;11.52;7.22;;;;;;;;;;5065654;28;20036;-51
2023/02/13 12:37:34;;;;;;;10.65;6.82;;;;;;;;;;5021372;28;20034;-48
2023/02/13 12:40:15;;;;;;;10.52;6.82;;;;;;;;;;5003707;28;20053;-51
2023/02/13 12:42:49;;;;;;;8.80;6.15;;;;;;;;;;5060049;28;20044;-50
2023/02/13 12:45:25;;;;;;;8.85;6.22;;;;;;;;;;5083485;28;20024;-49
2023/02/13 12:47:53;;;;;;;8.77;5.90;;;;;;;;;;5087199;28;20571;-50
2023/02/13 12:50:22;;;;;;;9.32;6.53;;;;;;;;;;5087077;28;20024;-51
2023/02/13 12:52:49;;;;;;;10.80;6.47;;;;;;;;;;5087044;28;20085;-50
2023/02/13 12:55:15;;;;;;;9.52;6.32;;;;;;;;;;5086664;28;20031;-51
2023/02/13 12:57:41;;;;;;;7.90;5.82;;;;;;;;;;5068523;28;20131;-52
2023/02/13 13:00:13;;;;;;;8.70;5.38;;;;;;;;;;5086933;28;20055;-49
2023/02/13 13:02:42;;;;;;;11.27;7.55;;;;;;;;;;5086589;28;20036;-49
2023/02/13 13:05:10;;;;;;;13.82;8.05;;;;;;;;;;5086557;28;20506;-53
2023/02/13 13:07:51;;;;;;;12.13;6.93;;;;;;;;;;5086593;28;20032;-52
2023/02/13 13:10:33;;;;;;;9.60;6.20;;;;;;;;;;5066217;28;20024;-51
2023/02/13 13:13:23;;;;;;;8.88;5.90;;;;;;;;;;5065991;28;20032;-50
2023/02/13 13:15:49;;;;;;;10.25;6.97;;;;;;;;;;5066263;28;20040;-50
2023/02/13 13:18:31;;;;;;;13.55;8.38;;;;;;;;;;5048429;28;20029;-49
2023/02/13 13:20:59;;;;;;;11.35;7.60;;;;;;;;;;5066190;28;20036;-50
2023/02/13 13:23:31;;;;;;;11.60;6.93;;;;;;;;;;5075425;28;20024;-51
2023/02/13 13:25:57;;;;;;;10.50;5.75;;;;;;;;;;5085892;28;20055;-52
2023/02/13 13:28:25;;;;;;;10.95;6.07;;;;;;;;;;5087406;28;20020;-52
2023/02/13 13:30:53;;;;;;;9.20;5.57;;;;;;;;;;5086847;28;20024;-50
2023/02/13 13:33:21;;;;;;;7.75;4.53;;;;;;;;;;5068515;28;20024;-51
2023/02/13 13:35:53;;;;;;;9.10;5.07;;;;;;;;;;5067902;28;20024;-51
2023/02/13 13:38:31;;;;;;;6.95;4.18;;;;;;;;;;5067744;28;20495;-50
2023/02/13 13:41:17;;;;;;;9.52;5.03;;;;;;;;;;5067030;28;20392;-50
2023/02/13 13:43:52;;;;;;;6.32;4.03;;;;;;;;;;5085886;28;20568;-50
2023/02/13 13:46:39;;;;;;;7.38;4.25;;;;;;;;;;5067725;28;20055;-49
2023/02/13 13:49:20;;;;;;;5.95;3.50;;;;;;;;;;5054496;28;20518;-53
2023/02/13 13:51:46;;;;;;;7.32;3.70;;;;;;;;;;5065639;28;20130;-53
2023/02/13 13:54:12;;;;;;;7.35;4.18;;;;;;;;;;5066204;28;20496;-53
2023/02/13 13:57:07;;;;;;;7.78;4.35;;;;;;;;;;5046712;28;20035;-51
2023/02/13 13:59:33;;;;;;;8.40;4.85;;;;;;;;;;5052276;28;20047;-51
2023/02/13 14:02:17;;;;;;;9.07;5.38;;;;;;;;;;5065359;28;20519;-52
2023/02/13 14:05:09;;;;;;;8.15;4.40;;;;;;;;;;5080859;28;20407;-51
2023/02/13 14:07:40;;;;;;;7.47;4.25;;;;;;;;;;5081079;28;20547;-51
2023/02/13 14:10:22;;;;;;;7.10;4.45;;;;;;;;;;5080619;28;20164;-53
2023/02/13 14:12:50;;;;;;;6.55;3.92;;;;;;;;;;5085389;28;20039;-50
2023/02/13 14:15:36;;;;;;;5.57;3.35;;;;;;;;;;5066144;28;20407;-54
2023/02/13 14:18:14;;;;;;;5.03;3.35;;;;;;;;;;5065272;28;20031;-51
2023/02/13 14:20:40;;;;;;;4.72;3.28;;;;;;;;;;5064877;28;20412;-52
2023/02/13 14:23:07;;;;;;;4.03;2.72;;;;;;;;;;5047617;28;20491;-53
2023/02/13 14:25:34;;;;;;;6.05;3.47;;;;;;;;;;5064577;28;20024;-52
2023/02/13 14:28:01;;;;;;;4.80;3.35;;;;;;;;;;5050725;28;20746;-53
2023/02/13 14:30:30;;;;;;;6.22;3.55;;;;;;;;;;5085111;28;20473;-52
2023/02/13 14:33:00;;;;;;;4.80;3.40;;;;;;;;;;5084518;28;20094;-52
2023/02/13 14:35:29;;;;;;;3.60;2.55;;;;;;;;;;5085079;28;20398;-54
2023/02/13 14:37:57;;;;;;;4.93;3.20;;;;;;;;;;5085261;28;20438;-54
2023/02/13 14:40:29;;;;;;;5.20;2.85;;;;;;;;;;5100673;28;20031;-52
2023/02/13 14:42:55;;;;;;;4.07;3.05;;;;;;;;;;5084731;28;20532;-51
2023/02/13 14:45:26;;;;;;;4.35;2.92;;;;;;;;;;5084935;28;20024;-53
2023/02/13 14:47:54;;;;;;;5.68;3.85;;;;;;;;;;5084682;28;20040;-53
2023/02/13 14:50:24;;;;;;;7.13;3.40;;;;;;;;;;5085154;28;20456;-52
2023/02/13 14:52:51;;;;;;;8.50;3.97;;;;;;;;;;5084256;28;20027;-54
2023/02/13 14:55:33;;;;;;;6.47;4.05;;;;;;;;;;5084510;28;20043;-50
2023/02/13 14:58:06;;;;;;;6.40;4.07;;;;;;;;;;5084464;28;20274;-53
2023/02/13 15:01:05;;;;;;;8.05;4.88;;;;;;;;;;5084676;28;20639;-54
2023/02/13 15:03:39;;;;;;;7.40;4.32;;;;;;;;;;5009792;28;20275;-51
2023/02/13 15:06:12;;;;;;;6.63;4.47;;;;;;;;;;5083681;28;20407;-53
2023/02/13 15:08:43;;;;;;;6.53;4.05;;;;;;;;;;5084469;28;20028;-53
2023/02/13 15:11:34;;;;;;;5.55;3.55;;;;;;;;;;5086909;28;20004;-54
2023/02/13 15:13:55;;;;;;;6.07;4.18;;;;;;;;;;5086868;28;20744;-51
2023/02/13 15:16:21;;;;;;;5.68;3.70;;;;;;;;;;5087849;28;20040;-52
2023/02/13 15:18:51;;;;;;;5.90;3.47;;;;;;;;;;5086568;28;20038;-53
2023/02/13 15:21:21;;;;;;;6.28;3.75;;;;;;;;;;5074843;28;20119;-51
2023/02/13 15:23:55;;;;;;;5.40;3.40;;;;;;;;;;5086142;28;20040;-51
2023/02/13 15:26:25;;;;;;;3.80;2.73;;;;;;;;;;5084820;28;20028;-53
2023/02/13 15:29:02;;;;;;;4.40;3.38;;;;;;;;;;5085433;28;20398;-53
2023/02/13 15:31:33;;;;;;;6.65;4.35;;;;;;;;;;5085402;28;20024;-54
2023/02/13 15:34:00;;;;;;;5.20;3.60;;;;;;;;;;5085335;28;20031;-51
2023/02/13 15:36:26;;;;;;;5.18;3.40;;;;;;;;;;5085269;28;20024;-52
2023/02/13 15:39:02;;;;;;;5.28;3.13;;;;;;;;;;5085189;28;20024;-54
2023/02/13 15:41:31;;;;;;;7.60;4.75;;;;;;;;;;5086598;28;20032;-51
2023/02/13 15:43:58;;;;;;;5.63;3.85;;;;;;;;;;5086475;28;20514;-52
2023/02/13 15:46:30;;;;;;;5.13;3.63;;;;;;;;;;5086339;28;20032;-50
2023/02/13 15:48:58;;;;;;;4.65;3.22;;;;;;;;;;5086425;28;20028;-51
2023/02/13 15:51:27;;;;;;;4.72;2.97;;;;;;;;;;5085335;28;20024;-52
2023/02/13 15:53:54;;;;;;;4.15;2.47;;;;;;;;;;5085951;28;20023;-51
2023/02/13 15:56:20;;;;;;;4.70;3.55;;;;;;;;;;5085910;28;20037;-51
2023/02/13 15:58:47;;;;;;;3.72;2.90;;;;;;;;;;5084806;28;20032;-51
2023/02/13 16:01:15;;;;;;;5.13;3.05;;;;;;;;;;5084532;28;20127;-52
2023/02/13 16:03:42;;;;;;;5.10;3.45;;;;;;;;;;5085178;28;20380;-53
2023/02/13 16:06:12;;;;;;;7.13;4.35;;;;;;;;;;5081742;28;20036;-52
2023/02/13 16:08:44;;;;;;;4.22;3.10;;;;;;;;;;5084566;28;20030;-51
2023/02/13 16:11:16;;;;;;;6.10;3.92;;;;;;;;;;5081704;28;20081;-49
2023/02/13 16:14:01;;;;;;;4.82;3.45;;;;;;;;;;5077603;28;20035;-50
2023/02/13 16:16:28;;;;;;;5.90;3.38;;;;;;;;;;5084582;28;20032;-52
2023/02/13 16:18:54;;;;;;;4.28;2.95;;;;;;;;;;5081676;28;20064;-52
2023/02/13 16:21:22;;;;;;;3.70;2.60;;;;;;;;;;5088469;28;20055;-52
2023/02/13 16:23:48;;;;;;;3.75;3.00;;;;;;;;;;5090781;28;20024;-52
2023/02/13 16:26:15;;;;;;;4.15;2.92;;;;;;;;;;5088626;28;20024;-51
2023/02/13 16:28:45;;;;;;;3.92;2.88;;;;;;;;;;5088823;28;20035;-49
2023/02/13 16:31:15;;;;;;;4.68;3.35;;;;;;;;;;5088891;28;20503;-52
2023/02/13 16:33:41;;;;;;;4.70;3.40;;;;;;;;;;5088541;28;20402;-53
2023/02/13 16:36:09;;;;;;;4.30;3.13;;;;;;;;;;5088515;28;20499;-52
2023/02/13 16:38:40;;;;;;;4.80;3.30;;;;;;;;;;5088523;28;20039;-52
2023/02/13 16:41:18;;;;;;;4.03;2.90;;;;;;;;;;5088771;28;20034;-52
2023/02/13 16:43:53;;;;;;;4.47;3.03;;;;;;;;;;5088704;28;20063;-49
2023/02/13 16:46:28;;;;;;;4.88;3.50;;;;;;;;;;5085440;28;20054;-51
2023/02/13 16:51:30;;;;;;;5.63;3.97;;;;;;;;;;5088087;28;20097;-50
2023/02/13 16:53:59;;;;;;;4.60;3.15;;;;;;;;;;5086060;28;20031;-52
2023/02/13 16:56:25;;;;;;;5.50;3.65;;;;;;;;;;5100532;28;20500;-51
2023/02/13 16:59:02;;;;;;;5.03;3.47;;;;;;;;;;5101178;28;20568;-52
2023/02/13 17:01:28;;;;;;;8.45;4.70;;;;;;;;;;5088923;28;20097;-52
2023/02/13 17:03:54;;;;;;;7.10;4.18;;;;;;;;;;5086296;28;20024;-52
2023/02/13 17:06:20;;;;;;;7.57;4.68;;;;;;;;;;5089446;28;20028;-52
2023/02/13 17:08:46;;;;;;;6.85;4.20;;;;;;;;;;5089574;28;20077;-50
2023/02/13 17:11:18;;;;;;;6.15;4.20;;;;;;;;;;5088907;28;20463;-49
2023/02/13 17:13:44;;;;;;;5.72;4.00;;;;;;;;;;5089037;28;20020;-51
2023/02/13 17:16:11;;;;;;;6.13;3.80;;;;;;;;;;5088936;28;20540;-49
2023/02/13 17:18:37;;;;;;;8.48;4.93;;;;;;;;;;5089005;28;20048;-51
2023/02/13 17:21:05;;;;;;;8.02;4.65;;;;;;;;;;5089015;28;20070;-51
2023/02/13 17:23:31;;;;;;;9.30;4.82;;;;;;;;;;5088676;28;20035;-51
2023/02/13 17:25:57;;;;;;;8.00;4.90;;;;;;;;;;5088810;28;20438;-50
2023/02/13 17:28:29;;;;;;;10.10;6.10;;;;;;;;;;5089110;28;20042;-50
2023/02/13 17:30:57;;;;;;;9.55;5.60;;;;;;;;;;5088755;28;20101;-50
2023/02/13 17:33:30;;;;;;;9.15;5.82;;;;;;;;;;5087538;28;20028;-48
2023/02/13 17:35:56;;;;;;;7.63;5.00;;;;;;;;;;5088766;28;20035;-51
2023/02/13 17:38:23;;;;;;;8.68;5.30;;;;;;;;;;5088284;28;20490;-50
2023/02/13 17:40:50;;;;;;;8.50;5.40;;;;;;;;;;5087959;28;20587;-48
2023/02/13 17:43:18;;;;;;;12.52;7.05;;;;;;;;;;5087180;28;20032;-49
2023/02/13 17:45:45;;;;;;;14.02;8.05;;;;;;;;;;5086656;28;20036;-50
2023/02/13 17:48:11;;;;;;;13.82;8.25;;;;;;;;;;5088179;28;20551;-51
2023/02/13 17:50:37;;;;;;;14.70;8.45;;;;;;;;;;5068901;28;20391;-51
2023/02/13 17:53:05;;;;;;;12.38;7.13;;;;;;;;;;5087177;28;20024;-53
2023/02/13 17:55:32;;;;;;;12.40;7.47;;;;;;;;;;5087158;28;20511;-51
2023/02/13 17:57:58;;;;;;;12.40;7.55;;;;;;;;;;5086915;28;20024;-53
2023/02/13 18:00:26;;;;;;;11.63;7.60;;;;;;;;;;5084514;28;20031;-50
2023/02/13 18:02:53;;;;;;;12.65;7.97;;;;;;;;;;5086645;28;20043;-49
2023/02/13 18:05:19;;;;;;;11.65;7.13;;;;;;;;;;5084213;28;20078;-52
2023/02/13 18:07:46;;;;;;;11.98;6.75;;;;;;;;;;5085631;28;20028;-50
2023/02/13 18:10:13;;;;;;;11.73;7.22;;;;;;;;;;5081525;28;20336;-50
2023/02/13 18:12:39;;;;;;;10.13;6.55;;;;;;;;;;5065048;28;20031;-52
2023/02/13 18:15:05;;;;;;;10.02;6.45;;;;;;;;;;5080659;28;20036;-50
2023/02/13 18:17:32;;;;;;;9.65;5.80;;;;;;;;;;5076373;28;20274;-49
2023/02/13 18:19:59;;;;;;;9.48;5.78;;;;;;;;;;5085059;28;20039;-53
2023/02/13 18:22:25;;;;;;;8.27;5.35;;;;;;;;;;5083614;28;20564;-49
2023/02/13 18:24:51;;;;;;;8.93;5.32;;;;;;;;;;5085220;28;20107;-49
2023/02/13 18:27:17;;;;;;;6.88;4.70;;;;;;;;;;5093151;28;20102;-51
2023/02/13 18:29:43;;;;;;;7.68;4.75;;;;;;;;;;5085889;28;20032;-49
2023/02/13 18:32:10;;;;;;;6.75;4.72;;;;;;;;;;5094589;28;20107;-52
2023/02/13 18:34:37;;;;;;;9.20;5.18;;;;;;;;;;5105124;28;20485;-53
2023/02/13 18:37:03;;;;;;;8.18;4.97;;;;;;;;;;5088302;28;20024;-54
2023/02/13 18:39:29;;;;;;;8.45;5.15;;;;;;;;;;5066074;28;20035;-52
2023/02/13 18:41:55;;;;;;;8.32;5.22;;;;;;;;;;5084574;28;20590;-52
2023/02/13 18:44:21;;;;;;;13.00;6.57;;;;;;;;;;5096885;28;20023;-50
2023/02/13 18:46:47;;;;;;;24.42;12.05;;;;;;;;;;5090312;28;20032;-52
2023/02/13 18:49:13;;;;;;;25.38;14.93;;;;;;;;;;5084617;28;20115;-53
2023/02/13 18:51:41;;;;;;;25.35;14.35;;;;;;;;;;5084035;28;20115;-53
2023/02/13 18:54:07;;;;;;;18.75;11.35;;;;;;;;;;5083758;28;20031;-51
2023/02/13 18:56:34;;;;;;;15.32;9.65;;;;;;;;;;5084776;28;20032;-51
2023/02/13 18:58:59;;;;;;;14.30;8.45;;;;;;;;;;5083988;28;20388;-50
2023/02/13 19:01:26;;;;;;;14.68;7.40;;;;;;;;;;5082960;28;20111;-53
2023/02/13 19:03:53;;;;;;;10.52;6.45;;;;;;;;;;5082759;28;20024;-52
2023/02/13 19:06:20;;;;;;;10.35;6.22;;;;;;;;;;5084348;28;20422;-52
2023/02/13 19:08:48;;;;;;;8.98;5.35;;;;;;;;;;5083031;28;20016;-50
2023/02/13 19:11:18;;;;;;;10.63;6.18;;;;;;;;;;5082942;28;20069;-50
2023/02/13 19:13:44;;;;;;;10.05;5.93;;;;;;;;;;5064374;28;20105;-52
2023/02/13 19:16:19;;;;;;;9.95;6.10;;;;;;;;;;5083554;28;20510;-52
2023/02/13 19:18:51;;;;;;;10.23;5.68;;;;;;;;;;5082855;28;20074;-50
2023/02/13 19:21:18;;;;;;;7.63;4.88;;;;;;;;;;5084141;28;20047;-53
2023/02/13 19:23:44;;;;;;;8.07;4.40;;;;;;;;;;5083387;28;20045;-51
2023/02/13 19:26:12;;;;;;;7.63;4.57;;;;;;;;;;5082775;28;20038;-53
2023/02/13 19:28:38;;;;;;;7.45;4.63;;;;;;;;;;5072084;28;20032;-50
2023/02/13 19:31:04;;;;;;;6.72;3.85;;;;;;;;;;5083499;28;20028;-54
2023/02/13 19:33:30;;;;;;;7.53;4.35;;;;;;;;;;5083371;28;20035;-52
2023/02/13 19:35:58;;;;;;;6.00;3.70;;;;;;;;;;5064494;28;20039;-51
2023/02/13 19:38:24;;;;;;;7.38;4.03;;;;;;;;;;5083882;28;20448;-50
2023/02/13 19:40:50;;;;;;;6.95;4.07;;;;;;;;;;5083361;28;20055;-49
2023/02/13 19:43:16;;;;;;;6.18;4.03;;;;;;;;;;5083422;28;20047;-48
2023/02/13 19:45:43;;;;;;;7.55;4.18;;;;;;;;;;5083714;28;20047;-51
2023/02/13 19:48:09;;;;;;;7.78;4.65;;;;;;;;;;5065715;28;20020;-52
2023/02/13 19:50:35;;;;;;;7.75;4.63;;;;;;;;;;5083666;28;20038;-52
2023/02/13 19:53:03;;;;;;;7.68;4.68;;;;;;;;;;5083141;28;20021;-51
2023/02/13 19:55:29;;;;;;;9.35;5.35;;;;;;;;;;5084287;28;20051;-50
2023/02/13 19:57:56;;;;;;;9.88;5.50;;;;;;;;;;5087142;28;20419;-50
2023/02/13 20:00:22;;;;;;;10.68;5.88;;;;;;;;;;5088486;28;20111;-47